Airfield :
LOGIN :

Register | Disclaimer

   EN    FR    IT 

 










Legend :    VFR   Marginal VFR   IFR   Intensive IFR   Very Intensive IFR
Visi :
Ceiling :
>= 8 km
>= 3000ft
5 to 8 km
1000 to 3000 ft
1500m to 5 km
500 to 1000 ft
800 to 1500m
200 to 500 ft
< 800m
< 200 ft
Symbols :   Thunderstorms  Fog  Heavy snow  Heavy precipitations  Wind > 20 kt
SIGMETs :     Misc.  Thunderstorms  Icing  Turbulence  Mountain Waves  Volcanic Ashes






- Airport Elevation : 12 ft
- IATA code : NCE


LFMN - Nice

CURRENT METAR :
  • 301330Z 19008KT 9999 FEW023 15/06 Q1014 NOSIG

EXPIRED METARs :
  • 301300Z 18007KT 140V200 9999 FEW023 15/07 Q1014 NOSIG
  • 301230Z 19004KT 160V220 9999 FEW023 15/06 Q1014 NOSIG
  • 301200Z 30004KT 220V350 9999 FEW023 15/02 Q1014 NOSIG
  • 301130Z 31005KT 9999 FEW023 13/03 Q1014 NOSIG
  • 301100Z 32009KT 9999 FEW023 13/04 Q1014 NOSIG

TAF TAF LFMN
Valid from the 30 at 09:00 until the 01 at 15:00 UTC


300800Z 3009/0115 33010KT CAVOK
BECMG 3011/3013 19007KT
BECMG 3017/3019 33010KT
PROB30
TEMPO 3020/0105 FEW045TCU
BECMG 0111/0113 20005KT
ATIS : +33 4 93 17 21 16



MET'MAP, your aeronautical weather chart ! - Copyright ORBIFLY December 2007 - Disclaimer

ORBIFLY MET'MAP TEAM :

Programming & Development : Alexandra Zaïnal
Original concept : Baudouin d'Aumeries
Technical & hardware support : Manuel Goepfert
Assistance : Marc-Olivier Méhu




SOURCES & CREDITS :

   NOAA